sensor_id;sensor_type;location;lat;lon;timestamp;P1;durP1;ratioP1;P2;durP2;ratioP2
12986;SDS011;58897;51.960;5.582;2022-08-07T00:01:12;4.90;;;3.20;;
12986;SDS011;58897;51.960;5.582;2022-08-07T00:03:59;5.13;;;3.33;;
12986;SDS011;58897;51.960;5.582;2022-08-07T00:06:28;3.83;;;2.87;;
12986;SDS011;58897;51.960;5.582;2022-08-07T00:08:58;5.37;;;2.90;;
12986;SDS011;58897;51.960;5.582;2022-08-07T00:11:42;4.80;;;3.03;;
12986;SDS011;58897;51.960;5.582;2022-08-07T00:14:23;5.27;;;2.90;;
12986;SDS011;58897;51.960;5.582;2022-08-07T00:16:56;5.30;;;3.27;;
12986;SDS011;58897;51.960;5.582;2022-08-07T00:19:28;6.73;;;3.17;;
12986;SDS011;58897;51.960;5.582;2022-08-07T00:22:16;4.57;;;2.87;;
12986;SDS011;58897;51.960;5.582;2022-08-07T00:25:01;4.37;;;2.67;;
12986;SDS011;58897;51.960;5.582;2022-08-07T00:27:32;6.93;;;3.30;;
12986;SDS011;58897;51.960;5.582;2022-08-07T00:30:18;5.27;;;3.33;;
12986;SDS011;58897;51.960;5.582;2022-08-07T00:32:54;4.13;;;2.60;;
12986;SDS011;58897;51.960;5.582;2022-08-07T00:35:25;5.40;;;3.40;;
12986;SDS011;58897;51.960;5.582;2022-08-07T00:37:55;5.00;;;3.77;;
12986;SDS011;58897;51.960;5.582;2022-08-07T00:40:22;5.07;;;3.07;;
12986;SDS011;58897;51.960;5.582;2022-08-07T00:43:06;4.77;;;3.17;;
12986;SDS011;58897;51.960;5.582;2022-08-07T00:45:56;3.93;;;2.37;;
12986;SDS011;58897;51.960;5.582;2022-08-07T00:48:23;4.53;;;3.13;;
12986;SDS011;58897;51.960;5.582;2022-08-07T00:50:57;4.50;;;3.17;;
12986;SDS011;58897;51.960;5.582;2022-08-07T00:53:25;6.27;;;3.77;;
12986;SDS011;58897;51.960;5.582;2022-08-07T00:56:03;5.07;;;3.57;;
12986;SDS011;58897;51.960;5.582;2022-08-07T00:58:42;4.60;;;3.10;;
12986;SDS011;58897;51.960;5.582;2022-08-07T01:01:12;3.87;;;2.60;;
12986;SDS011;58897;51.960;5.582;2022-08-07T01:03:39;3.80;;;2.77;;
12986;SDS011;58897;51.960;5.582;2022-08-07T01:06:25;5.73;;;3.20;;
12986;SDS011;58897;51.960;5.582;2022-08-07T01:08:53;4.10;;;2.63;;
12986;SDS011;58897;51.960;5.582;2022-08-07T01:11:23;5.27;;;3.30;;
12986;SDS011;58897;51.960;5.582;2022-08-07T01:14:11;6.03;;;3.40;;
12986;SDS011;58897;51.960;5.582;2022-08-07T01:16:42;4.97;;;3.10;;
12986;SDS011;58897;51.960;5.582;2022-08-07T01:19:13;5.30;;;3.00;;
12986;SDS011;58897;51.960;5.582;2022-08-07T01:21:45;3.73;;;2.83;;
12986;SDS011;58897;51.960;5.582;2022-08-07T01:24:20;6.00;;;3.17;;
12986;SDS011;58897;51.960;5.582;2022-08-07T01:26:49;5.37;;;2.97;;
12986;SDS011;58897;51.960;5.582;2022-08-07T01:29:18;4.77;;;3.13;;
12986;SDS011;58897;51.960;5.582;2022-08-07T01:31:45;6.23;;;4.00;;
12986;SDS011;58897;51.960;5.582;2022-08-07T01:34:14;4.30;;;3.23;;
12986;SDS011;58897;51.960;5.582;2022-08-07T01:36:44;4.90;;;3.50;;
12986;SDS011;58897;51.960;5.582;2022-08-07T01:39:23;4.23;;;3.10;;
12986;SDS011;58897;51.960;5.582;2022-08-07T01:42:15;6.10;;;3.50;;
12986;SDS011;58897;51.960;5.582;2022-08-07T01:45:03;5.27;;;2.90;;
12986;SDS011;58897;51.960;5.582;2022-08-07T01:47:41;7.13;;;3.13;;
12986;SDS011;58897;51.960;5.582;2022-08-07T01:50:28;5.53;;;3.23;;
12986;SDS011;58897;51.960;5.582;2022-08-07T01:52:56;6.23;;;3.47;;
12986;SDS011;58897;51.960;5.582;2022-08-07T01:55:24;5.90;;;3.93;;
12986;SDS011;58897;51.960;5.582;2022-08-07T01:57:57;5.77;;;3.50;;
12986;SDS011;58897;51.960;5.582;2022-08-07T02:00:45;5.90;;;3.83;;
12986;SDS011;58897;51.960;5.582;2022-08-07T02:03:23;6.20;;;3.60;;
12986;SDS011;58897;51.960;5.582;2022-08-07T02:05:58;5.17;;;3.57;;
12986;SDS011;58897;51.960;5.582;2022-08-07T02:08:48;5.97;;;3.73;;
12986;SDS011;58897;51.960;5.582;2022-08-07T02:11:19;5.50;;;3.20;;
12986;SDS011;58897;51.960;5.582;2022-08-07T02:14:06;5.00;;;3.40;;
12986;SDS011;58897;51.960;5.582;2022-08-07T02:16:56;4.17;;;2.97;;
12986;SDS011;58897;51.960;5.582;2022-08-07T02:19:23;4.70;;;3.13;;
12986;SDS011;58897;51.960;5.582;2022-08-07T02:22:10;4.87;;;3.50;;
12986;SDS011;58897;51.960;5.582;2022-08-07T02:24:43;5.33;;;3.07;;
12986;SDS011;58897;51.960;5.582;2022-08-07T02:27:15;6.77;;;3.83;;
12986;SDS011;58897;51.960;5.582;2022-08-07T02:29:44;4.87;;;3.17;;
12986;SDS011;58897;51.960;5.582;2022-08-07T02:32:20;5.97;;;3.67;;
12986;SDS011;58897;51.960;5.582;2022-08-07T02:34:52;6.57;;;3.73;;
12986;SDS011;58897;51.960;5.582;2022-08-07T02:37:19;5.23;;;2.97;;
12986;SDS011;58897;51.960;5.582;2022-08-07T02:39:47;5.23;;;3.70;;
12986;SDS011;58897;51.960;5.582;2022-08-07T02:42:35;4.70;;;3.20;;
12986;SDS011;58897;51.960;5.582;2022-08-07T02:45:03;5.20;;;3.50;;
12986;SDS011;58897;51.960;5.582;2022-08-07T02:47:53;6.80;;;4.17;;
12986;SDS011;58897;51.960;5.582;2022-08-07T02:50:24;5.13;;;3.53;;
12986;SDS011;58897;51.960;5.582;2022-08-07T02:52:58;7.10;;;3.57;;
12986;SDS011;58897;51.960;5.582;2022-08-07T02:55:32;4.87;;;3.17;;
12986;SDS011;58897;51.960;5.582;2022-08-07T02:58:21;7.23;;;3.67;;
12986;SDS011;58897;51.960;5.582;2022-08-07T03:00:53;7.17;;;3.60;;
12986;SDS011;58897;51.960;5.582;2022-08-07T03:03:22;7.30;;;3.83;;
12986;SDS011;58897;51.960;5.582;2022-08-07T03:06:13;6.63;;;3.93;;
12986;SDS011;58897;51.960;5.582;2022-08-07T03:08:41;4.10;;;3.33;;
12986;SDS011;58897;51.960;5.582;2022-08-07T03:11:09;5.53;;;3.63;;
12986;SDS011;58897;51.960;5.582;2022-08-07T03:13:36;6.17;;;4.13;;
12986;SDS011;58897;51.960;5.582;2022-08-07T03:16:14;7.10;;;3.93;;
12986;SDS011;58897;51.960;5.582;2022-08-07T03:18:43;4.90;;;3.40;;
12986;SDS011;58897;51.960;5.582;2022-08-07T03:21:13;5.00;;;3.07;;
12986;SDS011;58897;51.960;5.582;2022-08-07T03:23:44;5.67;;;3.40;;
12986;SDS011;58897;51.960;5.582;2022-08-07T03:26:33;6.80;;;3.70;;
12986;SDS011;58897;51.960;5.582;2022-08-07T03:29:08;6.13;;;4.10;;
12986;SDS011;58897;51.960;5.582;2022-08-07T03:31:40;6.00;;;3.57;;
12986;SDS011;58897;51.960;5.582;2022-08-07T03:34:11;6.33;;;3.67;;
12986;SDS011;58897;51.960;5.582;2022-08-07T03:36:47;4.97;;;4.00;;
12986;SDS011;58897;51.960;5.582;2022-08-07T03:39:18;7.27;;;4.47;;
12986;SDS011;58897;51.960;5.582;2022-08-07T03:42:05;6.03;;;3.47;;
12986;SDS011;58897;51.960;5.582;2022-08-07T03:44:33;4.60;;;3.80;;
12986;SDS011;58897;51.960;5.582;2022-08-07T03:47:01;4.30;;;3.47;;
12986;SDS011;58897;51.960;5.582;2022-08-07T03:49:39;6.47;;;4.33;;
12986;SDS011;58897;51.960;5.582;2022-08-07T03:52:13;6.43;;;3.60;;
12986;SDS011;58897;51.960;5.582;2022-08-07T03:54:51;6.53;;;3.93;;
12986;SDS011;58897;51.960;5.582;2022-08-07T03:57:20;7.80;;;4.50;;
12986;SDS011;58897;51.960;5.582;2022-08-07T04:00:07;7.07;;;4.17;;
12986;SDS011;58897;51.960;5.582;2022-08-07T04:02:35;5.00;;;3.80;;
12986;SDS011;58897;51.960;5.582;2022-08-07T04:05:06;6.60;;;3.77;;
12986;SDS011;58897;51.960;5.582;2022-08-07T04:07:34;4.90;;;3.43;;
12986;SDS011;58897;51.960;5.582;2022-08-07T04:10:08;7.53;;;4.07;;
12986;SDS011;58897;51.960;5.582;2022-08-07T04:12:44;7.87;;;4.07;;
12986;SDS011;58897;51.960;5.582;2022-08-07T04:15:12;5.97;;;3.80;;
12986;SDS011;58897;51.960;5.582;2022-08-07T04:17:41;6.23;;;3.83;;
12986;SDS011;58897;51.960;5.582;2022-08-07T04:20:29;4.83;;;3.67;;
12986;SDS011;58897;51.960;5.582;2022-08-07T04:23:00;6.20;;;3.93;;
12986;SDS011;58897;51.960;5.582;2022-08-07T04:25:31;6.37;;;3.80;;
12986;SDS011;58897;51.960;5.582;2022-08-07T04:28:04;7.60;;;4.13;;
12986;SDS011;58897;51.960;5.582;2022-08-07T04:30:33;5.57;;;3.53;;
12986;SDS011;58897;51.960;5.582;2022-08-07T04:33:20;7.77;;;4.13;;
12986;SDS011;58897;51.960;5.582;2022-08-07T04:35:50;6.63;;;4.27;;
12986;SDS011;58897;51.960;5.582;2022-08-07T04:38:19;6.57;;;4.40;;
12986;SDS011;58897;51.960;5.582;2022-08-07T04:40:47;6.13;;;3.77;;
12986;SDS011;58897;51.960;5.582;2022-08-07T04:43:20;5.97;;;4.13;;
12986;SDS011;58897;51.960;5.582;2022-08-07T04:46:17;5.80;;;3.93;;
12986;SDS011;58897;51.960;5.582;2022-08-07T04:51:55;6.70;;;3.80;;
12986;SDS011;58897;51.960;5.582;2022-08-07T04:54:51;8.77;;;4.20;;
12986;SDS011;58897;51.960;5.582;2022-08-07T04:57:34;8.10;;;4.50;;
12986;SDS011;58897;51.960;5.582;2022-08-07T05:00:32;8.00;;;4.60;;
12986;SDS011;58897;51.960;5.582;2022-08-07T05:08:47;6.30;;;3.63;;
12986;SDS011;58897;51.960;5.582;2022-08-07T05:11:31;11.10;;;3.73;;
12986;SDS011;58897;51.960;5.582;2022-08-07T05:17:17;6.40;;;3.83;;
12986;SDS011;58897;51.960;5.582;2022-08-07T05:20:05;8.53;;;4.10;;
12986;SDS011;58897;51.960;5.582;2022-08-07T05:22:35;5.57;;;4.07;;
12986;SDS011;58897;51.960;5.582;2022-08-07T05:25:04;5.73;;;3.90;;
12986;SDS011;58897;51.960;5.582;2022-08-07T05:27:37;5.57;;;3.83;;
12986;SDS011;58897;51.960;5.582;2022-08-07T05:30:24;5.63;;;3.87;;
12986;SDS011;58897;51.960;5.582;2022-08-07T05:32:58;7.63;;;4.07;;
12986;SDS011;58897;51.960;5.582;2022-08-07T05:35:30;7.60;;;4.33;;
12986;SDS011;58897;51.960;5.582;2022-08-07T05:38:07;5.00;;;3.83;;
12986;SDS011;58897;51.960;5.582;2022-08-07T05:40:35;7.47;;;4.17;;
12986;SDS011;58897;51.960;5.582;2022-08-07T05:43:16;7.27;;;4.33;;
12986;SDS011;58897;51.960;5.582;2022-08-07T05:46:04;6.60;;;4.30;;
12986;SDS011;58897;51.960;5.582;2022-08-07T05:48:31;6.10;;;3.83;;
12986;SDS011;58897;51.960;5.582;2022-08-07T05:50:59;6.23;;;4.40;;
12986;SDS011;58897;51.960;5.582;2022-08-07T05:53:28;7.63;;;4.83;;
12986;SDS011;58897;51.960;5.582;2022-08-07T05:56:16;8.03;;;4.70;;
12986;SDS011;58897;51.960;5.582;2022-08-07T05:58:44;8.20;;;4.60;;
12986;SDS011;58897;51.960;5.582;2022-08-07T06:01:18;8.83;;;4.83;;
12986;SDS011;58897;51.960;5.582;2022-08-07T06:03:47;7.53;;;4.77;;
12986;SDS011;58897;51.960;5.582;2022-08-07T06:06:26;10.50;;;5.03;;
12986;SDS011;58897;51.960;5.582;2022-08-07T06:08:57;6.00;;;4.37;;
12986;SDS011;58897;51.960;5.582;2022-08-07T06:11:24;7.30;;;4.53;;
12986;SDS011;58897;51.960;5.582;2022-08-07T06:13:53;7.60;;;4.77;;
12986;SDS011;58897;51.960;5.582;2022-08-07T06:16:39;8.03;;;5.03;;
12986;SDS011;58897;51.960;5.582;2022-08-07T06:19:08;8.77;;;5.23;;
12986;SDS011;58897;51.960;5.582;2022-08-07T06:21:43;9.10;;;5.50;;
12986;SDS011;58897;51.960;5.582;2022-08-07T06:24:31;7.00;;;5.00;;
12986;SDS011;58897;51.960;5.582;2022-08-07T06:27:24;8.87;;;5.23;;
12986;SDS011;58897;51.960;5.582;2022-08-07T06:30:10;7.33;;;4.83;;
12986;SDS011;58897;51.960;5.582;2022-08-07T06:32:57;9.80;;;5.53;;
12986;SDS011;58897;51.960;5.582;2022-08-07T06:35:24;12.20;;;5.60;;
12986;SDS011;58897;51.960;5.582;2022-08-07T06:38:04;13.63;;;5.90;;
12986;SDS011;58897;51.960;5.582;2022-08-07T06:40:39;10.47;;;5.60;;
12986;SDS011;58897;51.960;5.582;2022-08-07T06:43:11;8.00;;;5.03;;
12986;SDS011;58897;51.960;5.582;2022-08-07T06:45:47;10.07;;;6.77;;
12986;SDS011;58897;51.960;5.582;2022-08-07T06:48:14;9.40;;;6.20;;
12986;SDS011;58897;51.960;5.582;2022-08-07T06:50:50;10.10;;;5.70;;
12986;SDS011;58897;51.960;5.582;2022-08-07T06:53:19;8.80;;;5.33;;
12986;SDS011;58897;51.960;5.582;2022-08-07T06:56:08;9.90;;;6.10;;
12986;SDS011;58897;51.960;5.582;2022-08-07T06:58:41;8.47;;;5.37;;
12986;SDS011;58897;51.960;5.582;2022-08-07T07:01:30;8.70;;;5.90;;
12986;SDS011;58897;51.960;5.582;2022-08-07T07:04:16;9.07;;;5.93;;
12986;SDS011;58897;51.960;5.582;2022-08-07T07:06:58;9.40;;;5.90;;
12986;SDS011;58897;51.960;5.582;2022-08-07T07:09:28;8.73;;;5.67;;
12986;SDS011;58897;51.960;5.582;2022-08-07T07:17:23;10.07;;;6.10;;
12986;SDS011;58897;51.960;5.582;2022-08-07T07:20:05;7.83;;;5.47;;
12986;SDS011;58897;51.960;5.582;2022-08-07T07:22:37;11.87;;;6.03;;
12986;SDS011;58897;51.960;5.582;2022-08-07T07:25:25;10.87;;;5.43;;
12986;SDS011;58897;51.960;5.582;2022-08-07T07:28:13;7.00;;;5.30;;
12986;SDS011;58897;51.960;5.582;2022-08-07T07:31:09;8.13;;;4.67;;
12986;SDS011;58897;51.960;5.582;2022-08-07T07:33:47;5.97;;;4.23;;
12986;SDS011;58897;51.960;5.582;2022-08-07T07:36:22;7.70;;;5.40;;
12986;SDS011;58897;51.960;5.582;2022-08-07T07:38:57;7.70;;;5.70;;
12986;SDS011;58897;51.960;5.582;2022-08-07T07:41:26;6.53;;;4.70;;
12986;SDS011;58897;51.960;5.582;2022-08-07T07:44:15;6.87;;;4.90;;
12986;SDS011;58897;51.960;5.582;2022-08-07T07:46:52;5.70;;;4.60;;
12986;SDS011;58897;51.960;5.582;2022-08-07T07:49:39;9.17;;;5.20;;
12986;SDS011;58897;51.960;5.582;2022-08-07T07:52:26;9.87;;;6.97;;
12986;SDS011;58897;51.960;5.582;2022-08-07T07:54:55;9.00;;;6.07;;
12986;SDS011;58897;51.960;5.582;2022-08-07T07:57:23;6.80;;;5.50;;
12986;SDS011;58897;51.960;5.582;2022-08-07T08:00:12;8.67;;;4.93;;
12986;SDS011;58897;51.960;5.582;2022-08-07T08:02:54;5.13;;;3.87;;
12986;SDS011;58897;51.960;5.582;2022-08-07T08:05:31;5.60;;;4.20;;
12986;SDS011;58897;51.960;5.582;2022-08-07T08:08:17;5.10;;;3.43;;
12986;SDS011;58897;51.960;5.582;2022-08-07T08:11:02;4.80;;;3.60;;
12986;SDS011;58897;51.960;5.582;2022-08-07T08:13:33;5.27;;;4.10;;
12986;SDS011;58897;51.960;5.582;2022-08-07T08:16:21;3.57;;;2.77;;
12986;SDS011;58897;51.960;5.582;2022-08-07T08:18:56;5.90;;;3.50;;
12986;SDS011;58897;51.960;5.582;2022-08-07T08:21:36;4.00;;;2.93;;
12986;SDS011;58897;51.960;5.582;2022-08-07T08:24:30;6.17;;;3.20;;
12986;SDS011;58897;51.960;5.582;2022-08-07T08:27:40;6.50;;;3.53;;
12986;SDS011;58897;51.960;5.582;2022-08-07T08:30:22;3.80;;;3.30;;
12986;SDS011;58897;51.960;5.582;2022-08-07T08:32:51;3.57;;;3.00;;
12986;SDS011;58897;51.960;5.582;2022-08-07T08:35:22;4.20;;;2.87;;
12986;SDS011;58897;51.960;5.582;2022-08-07T08:37:55;3.43;;;2.93;;
12986;SDS011;58897;51.960;5.582;2022-08-07T08:40:33;4.63;;;2.87;;
12986;SDS011;58897;51.960;5.582;2022-08-07T08:43:14;3.40;;;2.70;;
12986;SDS011;58897;51.960;5.582;2022-08-07T08:45:51;3.93;;;2.90;;
12986;SDS011;58897;51.960;5.582;2022-08-07T08:51:30;4.30;;;3.00;;
12986;SDS011;58897;51.960;5.582;2022-08-07T08:54:22;3.70;;;2.93;;
12986;SDS011;58897;51.960;5.582;2022-08-07T08:56:53;3.63;;;2.60;;
12986;SDS011;58897;51.960;5.582;2022-08-07T08:59:28;4.07;;;2.60;;
12986;SDS011;58897;51.960;5.582;2022-08-07T09:07:51;3.60;;;2.90;;
12986;SDS011;58897;51.960;5.582;2022-08-07T09:14:14;3.70;;;2.77;;
12986;SDS011;58897;51.960;5.582;2022-08-07T09:25:53;7.27;;;3.10;;
12986;SDS011;58897;51.960;5.582;2022-08-07T09:28:30;3.83;;;2.50;;
12986;SDS011;58897;51.960;5.582;2022-08-07T09:34:09;8.07;;;2.70;;
12986;SDS011;58897;51.960;5.582;2022-08-07T09:45:38;3.47;;;2.80;;
12986;SDS011;58897;51.960;5.582;2022-08-07T09:54:46;5.23;;;3.23;;
12986;SDS011;58897;51.960;5.582;2022-08-07T10:11:52;5.30;;;3.07;;
12986;SDS011;58897;51.960;5.582;2022-08-07T10:14:44;3.97;;;2.63;;
12986;SDS011;58897;51.960;5.582;2022-08-07T10:29:10;3.47;;;2.73;;
12986;SDS011;58897;51.960;5.582;2022-08-07T10:31:59;4.30;;;2.30;;
12986;SDS011;58897;51.960;5.582;2022-08-07T10:34:47;4.30;;;2.47;;
12986;SDS011;58897;51.960;5.582;2022-08-07T10:43:55;4.30;;;2.50;;
12986;SDS011;58897;51.960;5.582;2022-08-07T10:46:54;3.63;;;2.23;;
12986;SDS011;58897;51.960;5.582;2022-08-07T10:49:37;3.13;;;2.30;;
12986;SDS011;58897;51.960;5.582;2022-08-07T10:55:22;3.33;;;2.53;;
12986;SDS011;58897;51.960;5.582;2022-08-07T11:01:18;3.40;;;2.13;;
12986;SDS011;58897;51.960;5.582;2022-08-07T11:04:20;4.03;;;2.63;;
12986;SDS011;58897;51.960;5.582;2022-08-07T11:07:24;3.23;;;2.47;;
12986;SDS011;58897;51.960;5.582;2022-08-07T11:10:18;5.53;;;2.90;;
12986;SDS011;58897;51.960;5.582;2022-08-07T11:12:58;3.10;;;2.53;;
12986;SDS011;58897;51.960;5.582;2022-08-07T11:15:53;3.90;;;2.47;;
12986;SDS011;58897;51.960;5.582;2022-08-07T11:18:28;4.60;;;2.60;;
12986;SDS011;58897;51.960;5.582;2022-08-07T11:21:05;5.23;;;2.50;;
12986;SDS011;58897;51.960;5.582;2022-08-07T11:26:27;5.37;;;3.07;;
12986;SDS011;58897;51.960;5.582;2022-08-07T11:29:08;4.83;;;2.37;;
12986;SDS011;58897;51.960;5.582;2022-08-07T11:34:55;4.00;;;2.40;;
12986;SDS011;58897;51.960;5.582;2022-08-07T11:55:07;5.70;;;2.83;;
12986;SDS011;58897;51.960;5.582;2022-08-07T11:58:17;3.07;;;2.40;;
12986;SDS011;58897;51.960;5.582;2022-08-07T12:09:27;3.37;;;2.17;;
12986;SDS011;58897;51.960;5.582;2022-08-07T12:12:04;2.80;;;2.00;;
12986;SDS011;58897;51.960;5.582;2022-08-07T12:18:02;3.70;;;2.30;;
12986;SDS011;58897;51.960;5.582;2022-08-07T12:20:51;3.30;;;2.03;;
12986;SDS011;58897;51.960;5.582;2022-08-07T12:23:34;2.27;;;1.83;;
12986;SDS011;58897;51.960;5.582;2022-08-07T12:26:44;3.83;;;2.33;;
12986;SDS011;58897;51.960;5.582;2022-08-07T12:29:21;3.80;;;2.17;;
12986;SDS011;58897;51.960;5.582;2022-08-07T12:32:13;3.80;;;2.37;;
12986;SDS011;58897;51.960;5.582;2022-08-07T12:34:44;2.23;;;1.53;;
12986;SDS011;58897;51.960;5.582;2022-08-07T12:37:18;2.90;;;2.03;;
12986;SDS011;58897;51.960;5.582;2022-08-07T12:40:06;4.37;;;2.07;;
12986;SDS011;58897;51.960;5.582;2022-08-07T12:42:54;2.83;;;2.10;;
12986;SDS011;58897;51.960;5.582;2022-08-07T12:45:26;3.07;;;1.97;;
12986;SDS011;58897;51.960;5.582;2022-08-07T12:51:41;3.30;;;2.00;;
12986;SDS011;58897;51.960;5.582;2022-08-07T12:54:26;6.80;;;2.47;;
12986;SDS011;58897;51.960;5.582;2022-08-07T12:57:06;2.30;;;1.73;;
12986;SDS011;58897;51.960;5.582;2022-08-07T12:59:35;3.60;;;2.10;;
12986;SDS011;58897;51.960;5.582;2022-08-07T13:05:17;4.13;;;2.03;;
12986;SDS011;58897;51.960;5.582;2022-08-07T13:16:39;2.80;;;1.80;;
12986;SDS011;58897;51.960;5.582;2022-08-07T13:19:25;6.20;;;2.20;;
12986;SDS011;58897;51.960;5.582;2022-08-07T13:22:20;3.33;;;1.50;;
12986;SDS011;58897;51.960;5.582;2022-08-07T13:27:55;7.73;;;3.20;;
12986;SDS011;58897;51.960;5.582;2022-08-07T13:30:41;3.77;;;1.57;;
12986;SDS011;58897;51.960;5.582;2022-08-07T13:36:13;3.33;;;2.07;;
12986;SDS011;58897;51.960;5.582;2022-08-07T13:39:00;2.33;;;1.70;;
12986;SDS011;58897;51.960;5.582;2022-08-07T13:41:49;3.80;;;2.10;;
12986;SDS011;58897;51.960;5.582;2022-08-07T13:44:21;2.00;;;1.70;;
12986;SDS011;58897;51.960;5.582;2022-08-07T13:47:00;3.60;;;2.20;;
12986;SDS011;58897;51.960;5.582;2022-08-07T13:49:37;2.43;;;1.60;;
12986;SDS011;58897;51.960;5.582;2022-08-07T13:52:28;2.57;;;1.80;;
12986;SDS011;58897;51.960;5.582;2022-08-07T13:55:07;3.60;;;1.83;;
12986;SDS011;58897;51.960;5.582;2022-08-07T13:57:52;3.10;;;2.00;;
12986;SDS011;58897;51.960;5.582;2022-08-07T14:00:57;2.47;;;1.80;;
12986;SDS011;58897;51.960;5.582;2022-08-07T14:03:34;4.37;;;3.17;;
12986;SDS011;58897;51.960;5.582;2022-08-07T14:06:33;5.50;;;3.17;;
12986;SDS011;58897;51.960;5.582;2022-08-07T14:09:03;3.60;;;2.13;;
12986;SDS011;58897;51.960;5.582;2022-08-07T14:11:33;3.00;;;2.00;;
12986;SDS011;58897;51.960;5.582;2022-08-07T14:14:39;3.40;;;1.80;;
12986;SDS011;58897;51.960;5.582;2022-08-07T14:17:10;2.77;;;2.00;;
12986;SDS011;58897;51.960;5.582;2022-08-07T14:20:03;6.47;;;2.90;;
12986;SDS011;58897;51.960;5.582;2022-08-07T14:23:02;5.17;;;2.40;;
12986;SDS011;58897;51.960;5.582;2022-08-07T14:25:35;6.33;;;2.47;;
12986;SDS011;58897;51.960;5.582;2022-08-07T14:28:10;8.67;;;3.07;;
12986;SDS011;58897;51.960;5.582;2022-08-07T14:30:43;3.57;;;2.33;;
12986;SDS011;58897;51.960;5.582;2022-08-07T14:33:17;2.87;;;2.07;;
12986;SDS011;58897;51.960;5.582;2022-08-07T14:35:52;3.13;;;1.60;;
12986;SDS011;58897;51.960;5.582;2022-08-07T14:38:22;4.70;;;2.43;;
12986;SDS011;58897;51.960;5.582;2022-08-07T14:40:57;4.33;;;2.33;;
12986;SDS011;58897;51.960;5.582;2022-08-07T14:43:29;3.37;;;2.03;;
12986;SDS011;58897;51.960;5.582;2022-08-07T14:46:19;2.80;;;1.80;;
12986;SDS011;58897;51.960;5.582;2022-08-07T14:48:57;3.87;;;2.43;;
12986;SDS011;58897;51.960;5.582;2022-08-07T14:51:45;4.73;;;2.00;;
12986;SDS011;58897;51.960;5.582;2022-08-07T14:54:31;3.20;;;1.80;;
12986;SDS011;58897;51.960;5.582;2022-08-07T14:57:09;4.97;;;2.33;;
12986;SDS011;58897;51.960;5.582;2022-08-07T14:59:44;4.60;;;2.47;;
12986;SDS011;58897;51.960;5.582;2022-08-07T15:02:31;4.53;;;2.33;;
12986;SDS011;58897;51.960;5.582;2022-08-07T15:05:02;5.33;;;3.10;;
12986;SDS011;58897;51.960;5.582;2022-08-07T15:07:45;3.83;;;2.60;;
12986;SDS011;58897;51.960;5.582;2022-08-07T15:10:33;6.97;;;2.60;;
12986;SDS011;58897;51.960;5.582;2022-08-07T15:13:04;3.57;;;2.37;;
12986;SDS011;58897;51.960;5.582;2022-08-07T15:16:13;3.47;;;2.20;;
12986;SDS011;58897;51.960;5.582;2022-08-07T15:18:59;3.73;;;2.27;;
12986;SDS011;58897;51.960;5.582;2022-08-07T15:21:27;4.73;;;3.50;;
12986;SDS011;58897;51.960;5.582;2022-08-07T15:24:21;4.27;;;2.43;;
12986;SDS011;58897;51.960;5.582;2022-08-07T15:27:20;4.67;;;2.73;;
12986;SDS011;58897;51.960;5.582;2022-08-07T15:29:51;3.00;;;2.20;;
12986;SDS011;58897;51.960;5.582;2022-08-07T15:32:39;3.97;;;2.20;;
12986;SDS011;58897;51.960;5.582;2022-08-07T15:35:27;3.83;;;2.67;;
12986;SDS011;58897;51.960;5.582;2022-08-07T15:38:24;3.13;;;2.33;;
12986;SDS011;58897;51.960;5.582;2022-08-07T15:41:14;5.37;;;2.73;;
12986;SDS011;58897;51.960;5.582;2022-08-07T15:44:03;3.23;;;2.30;;
12986;SDS011;58897;51.960;5.582;2022-08-07T15:46:34;2.50;;;1.93;;
12986;SDS011;58897;51.960;5.582;2022-08-07T15:49:17;6.43;;;3.30;;
12986;SDS011;58897;51.960;5.582;2022-08-07T15:52:11;3.20;;;1.93;;
12986;SDS011;58897;51.960;5.582;2022-08-07T15:54:42;3.30;;;2.10;;
12986;SDS011;58897;51.960;5.582;2022-08-07T15:57:13;3.83;;;2.37;;
12986;SDS011;58897;51.960;5.582;2022-08-07T16:00:04;4.57;;;1.90;;
12986;SDS011;58897;51.960;5.582;2022-08-07T16:02:39;3.60;;;2.10;;
12986;SDS011;58897;51.960;5.582;2022-08-07T16:05:12;2.83;;;1.87;;
12986;SDS011;58897;51.960;5.582;2022-08-07T16:07:57;5.63;;;2.60;;
12986;SDS011;58897;51.960;5.582;2022-08-07T16:10:56;3.70;;;1.90;;
12986;SDS011;58897;51.960;5.582;2022-08-07T16:13:44;5.43;;;2.40;;
12986;SDS011;58897;51.960;5.582;2022-08-07T16:16:30;9.63;;;4.30;;
12986;SDS011;58897;51.960;5.582;2022-08-07T16:19:34;6.20;;;3.10;;
12986;SDS011;58897;51.960;5.582;2022-08-07T16:28:19;5.00;;;2.30;;
12986;SDS011;58897;51.960;5.582;2022-08-07T16:34:11;5.40;;;2.23;;
12986;SDS011;58897;51.960;5.582;2022-08-07T16:40:04;4.77;;;2.50;;
12986;SDS011;58897;51.960;5.582;2022-08-07T16:52:37;3.80;;;2.30;;
12986;SDS011;58897;51.960;5.582;2022-08-07T16:55:55;7.80;;;4.63;;
12986;SDS011;58897;51.960;5.582;2022-08-07T16:58:47;5.27;;;3.10;;
12986;SDS011;58897;51.960;5.582;2022-08-07T17:06:54;5.10;;;2.70;;
12986;SDS011;58897;51.960;5.582;2022-08-07T17:21:23;4.50;;;2.73;;
12986;SDS011;58897;51.960;5.582;2022-08-07T17:27:20;4.63;;;2.93;;
12986;SDS011;58897;51.960;5.582;2022-08-07T17:36:12;4.97;;;3.10;;
12986;SDS011;58897;51.960;5.582;2022-08-07T17:38:49;3.83;;;2.80;;
12986;SDS011;58897;51.960;5.582;2022-08-07T17:44:49;4.23;;;2.67;;
12986;SDS011;58897;51.960;5.582;2022-08-07T17:50:21;4.70;;;3.03;;
12986;SDS011;58897;51.960;5.582;2022-08-07T17:53:08;4.20;;;3.00;;
12986;SDS011;58897;51.960;5.582;2022-08-07T17:56:10;3.90;;;2.40;;
12986;SDS011;58897;51.960;5.582;2022-08-07T18:01:26;8.37;;;4.57;;
12986;SDS011;58897;51.960;5.582;2022-08-07T18:04:16;4.83;;;2.70;;
12986;SDS011;58897;51.960;5.582;2022-08-07T18:07:09;6.47;;;3.20;;
12986;SDS011;58897;51.960;5.582;2022-08-07T18:09:51;3.90;;;2.63;;
12986;SDS011;58897;51.960;5.582;2022-08-07T18:12:39;6.47;;;3.90;;
12986;SDS011;58897;51.960;5.582;2022-08-07T18:15:24;6.17;;;3.73;;
12986;SDS011;58897;51.960;5.582;2022-08-07T18:18:02;4.73;;;3.17;;
12986;SDS011;58897;51.960;5.582;2022-08-07T18:21:15;7.43;;;3.20;;
12986;SDS011;58897;51.960;5.582;2022-08-07T18:38:25;7.27;;;3.63;;
12986;SDS011;58897;51.960;5.582;2022-08-07T18:53:13;4.57;;;2.73;;
12986;SDS011;58897;51.960;5.582;2022-08-07T19:05:13;4.93;;;3.00;;
12986;SDS011;58897;51.960;5.582;2022-08-07T19:10:35;3.63;;;2.80;;
12986;SDS011;58897;51.960;5.582;2022-08-07T19:16:33;6.17;;;2.97;;
12986;SDS011;58897;51.960;5.582;2022-08-07T19:19:30;6.63;;;3.43;;
12986;SDS011;58897;51.960;5.582;2022-08-07T19:24:56;3.63;;;2.27;;
12986;SDS011;58897;51.960;5.582;2022-08-07T19:27:31;4.60;;;3.10;;
12986;SDS011;58897;51.960;5.582;2022-08-07T19:30:20;3.80;;;2.70;;
12986;SDS011;58897;51.960;5.582;2022-08-07T19:33:10;4.47;;;2.90;;
12986;SDS011;58897;51.960;5.582;2022-08-07T19:35:41;3.53;;;2.70;;
12986;SDS011;58897;51.960;5.582;2022-08-07T19:38:13;3.03;;;2.40;;
12986;SDS011;58897;51.960;5.582;2022-08-07T19:40:43;4.13;;;2.77;;
12986;SDS011;58897;51.960;5.582;2022-08-07T19:43:17;4.77;;;3.00;;
12986;SDS011;58897;51.960;5.582;2022-08-07T19:46:05;4.90;;;2.60;;
12986;SDS011;58897;51.960;5.582;2022-08-07T19:48:36;4.83;;;2.40;;
12986;SDS011;58897;51.960;5.582;2022-08-07T19:51:09;8.33;;;2.80;;
12986;SDS011;58897;51.960;5.582;2022-08-07T19:53:49;3.97;;;2.90;;
12986;SDS011;58897;51.960;5.582;2022-08-07T19:56:43;7.03;;;2.80;;
12986;SDS011;58897;51.960;5.582;2022-08-07T19:59:34;7.73;;;3.23;;
12986;SDS011;58897;51.960;5.582;2022-08-07T20:02:06;4.80;;;2.90;;
12986;SDS011;58897;51.960;5.582;2022-08-07T20:04:45;4.83;;;2.40;;
12986;SDS011;58897;51.960;5.582;2022-08-07T20:07:15;3.97;;;2.60;;
12986;SDS011;58897;51.960;5.582;2022-08-07T20:10:03;5.57;;;2.97;;
12986;SDS011;58897;51.960;5.582;2022-08-07T20:12:52;3.57;;;2.60;;
12986;SDS011;58897;51.960;5.582;2022-08-07T20:15:20;3.97;;;2.73;;
12986;SDS011;58897;51.960;5.582;2022-08-07T20:18:02;6.03;;;3.00;;